Time;durP1;ratioP1;P1;durP2;ratioP2;P2;SDS_P1;SDS_P2;PMS_P1;PMS_P2;Temp;Humidity;BMP_temperature;BMP_pressure;BME280_temperature;BME280_humidity;BME280_pressure;Samples;Min_cycle;Max_cycle;Signal;HPM_P1;HPM_P2
2021/11/16 00:00:06;;;;;;;;;13.25;11.50;;;;;8.69;86.28;102106.84;5062351;28;45217;-58
2021/11/16 00:02:32;;;;;;;;;18.75;16.00;;;;;8.67;86.61;102100.81;5062362;28;45499;-57
2021/11/16 00:04:57;;;;;;;;;23.00;15.00;;;;;8.66;87.34;102105.97;5062166;28;45403;-58
2021/11/16 00:07:23;;;;;;;;;22.00;17.75;;;;;8.65;86.77;102110.31;5062296;28;45230;-58
2021/11/16 00:09:48;;;;;;;;;19.25;8.50;;;;;8.63;86.75;102105.97;5062388;28;45516;-58
2021/11/16 00:12:14;;;;;;;;;22.25;16.75;;;;;8.61;86.90;102113.75;5062353;28;45296;-58
2021/11/16 00:14:40;;;;;;;;;18.25;14.00;;;;;8.60;86.69;102106.81;5061943;28;46248;-57
2021/11/16 00:17:06;;;;;;;;;19.25;16.50;;;;;8.54;87.55;102110.25;5062007;28;45195;-57
2021/11/16 00:19:31;;;;;;;;;24.50;17.00;;;;;8.52;87.35;102103.34;5061501;28;45195;-57
2021/11/16 00:21:57;;;;;;;;;27.75;18.50;;;;;8.50;87.70;102094.69;5062119;28;45571;-57
2021/11/16 00:24:41;;;;;;;;;16.25;13.00;;;;;8.44;87.75;102084.34;5049444;28;45500;-58
2021/11/16 00:27:07;;;;;;;;;23.25;16.75;;;;;8.47;87.49;102086.94;5062199;28;45243;-58
2021/11/16 00:29:34;;;;;;;;;21.00;14.50;;;;;8.43;87.83;102086.06;5061946;28;45442;-58
2021/11/16 00:31:59;;;;;;;;;26.75;16.00;;;;;8.43;88.11;102091.25;5061991;28;45492;-58
2021/11/16 00:34:25;;;;;;;;;18.75;12.00;;;;;8.42;88.34;102076.56;5061638;28;45351;-57
2021/11/16 00:36:50;;;;;;;;;27.50;17.25;;;;;8.40;88.41;102072.22;5062046;28;45521;-57
2021/11/16 00:39:16;;;;;;;;;22.75;13.75;;;;;8.45;88.60;102065.34;5061721;28;45318;-57
2021/11/16 00:41:42;;;;;;;;;23.50;16.50;;;;;8.48;88.63;102063.63;5062141;28;45366;-57
2021/11/16 00:44:08;;;;;;;;;19.00;14.25;;;;;8.49;88.53;102062.75;5061406;28;46451;-57
2021/11/16 00:46:34;;;;;;;;;16.00;13.50;;;;;8.53;88.62;102061.88;5061132;28;45405;-58
2021/11/16 00:48:59;;;;;;;;;27.50;16.25;;;;;8.53;88.36;102048.94;5060951;28;45155;-58
2021/11/16 00:51:25;;;;;;;;;29.25;15.25;;;;;8.59;87.97;102052.41;5062055;28;45231;-58
2021/11/16 00:53:50;;;;;;;;;15.75;10.75;;;;;8.58;88.36;102053.25;5054716;28;45498;-58
2021/11/16 00:56:16;;;;;;;;;26.00;17.00;;;;;8.58;87.95;102046.34;5061774;28;45223;-57
2021/11/16 00:58:41;;;;;;;;;25.50;17.00;;;;;8.57;88.08;102054.13;5048331;28;45189;-58
2021/11/16 01:01:07;;;;;;;;;21.25;16.25;;;;;8.56;88.31;102053.25;5061630;28;45200;-57
2021/11/16 01:03:33;;;;;;;;;18.50;12.75;;;;;8.55;87.96;102043.75;5061286;28;46130;-57
2021/11/16 01:05:59;;;;;;;;;15.50;12.25;;;;;8.53;88.48;102040.31;5061519;28;45333;-57
2021/11/16 01:08:25;;;;;;;;;22.50;15.00;;;;;8.49;87.72;102048.94;5061273;28;45252;-58
2021/11/16 01:10:53;;;;;;;;;23.25;15.25;;;;;8.47;87.85;102041.16;5061579;28;45463;-58
2021/11/16 01:13:20;;;;;;;;;8.50;5.50;;;;;8.46;88.08;102042.03;5061173;28;45226;-58
2021/11/16 01:15:48;;;;;;;;;23.75;15.50;;;;;8.44;88.26;102040.28;5061321;28;45223;-58
2021/11/16 01:18:14;;;;;;;;;18.25;16.00;;;;;8.44;88.75;102040.28;5060408;28;45604;-58
2021/11/16 01:20:41;;;;;;;;;20.25;12.00;;;;;8.45;88.65;102039.44;5061396;28;45491;-58
2021/11/16 01:23:09;;;;;;;;;19.50;17.50;;;;;8.48;88.13;102034.25;5058502;28;45468;-58
2021/11/16 01:25:38;;;;;;;;;24.75;13.75;;;;;8.55;88.01;102035.97;5052797;28;45293;-58
2021/11/16 01:28:10;;;;;;;;;16.00;12.50;;;;;8.59;88.11;102027.34;5061182;28;45298;-58
2021/11/16 01:30:37;;;;;;;;;23.25;17.25;;;;;8.64;87.79;102028.25;5061074;28;45548;-58
2021/11/16 01:33:08;;;;;;;;;9.25;8.25;;;;;8.69;87.77;102034.28;5060703;28;46158;-57
2021/11/16 01:35:36;;;;;;;;;25.25;18.25;;;;;8.73;87.07;102033.41;5060059;28;45297;-58
2021/11/16 01:38:03;;;;;;;;;21.25;15.50;;;;;8.75;87.39;102033.41;5069260;28;45407;-58
2021/11/16 01:40:29;;;;;;;;;23.25;14.00;;;;;8.74;87.21;102035.16;5065020;28;45493;-58
2021/11/16 01:42:55;;;;;;;;;27.75;19.75;;;;;8.77;87.27;102042.91;5061569;28;46106;-58
2021/11/16 01:45:22;;;;;;;;;20.75;15.50;;;;;8.76;87.33;102040.31;5059587;28;45437;-58
2021/11/16 01:47:48;;;;;;;;;15.00;7.25;;;;;8.73;87.07;102041.19;5060612;28;45302;-58
2021/11/16 01:50:17;;;;;;;;;15.25;13.50;;;;;8.67;86.42;102042.94;5060736;28;45453;-58
2021/11/16 01:52:42;;;;;;;;;23.75;17.00;;;;;8.66;86.80;102046.38;5060348;28;46266;-57
2021/11/16 01:55:10;;;;;;;;;20.00;16.75;;;;;8.68;86.78;102039.47;5054750;28;45330;-58
2021/11/16 01:57:35;;;;;;;;;26.25;16.25;;;;;8.70;86.99;102046.38;5060982;28;45410;-58
2021/11/16 02:00:07;;;;;;;;;25.00;15.25;;;;;8.69;86.07;102036.00;5059402;28;45536;-58
2021/11/16 02:02:33;;;;;;;;;21.50;15.00;;;;;8.64;87.06;102041.19;5060531;28;45386;-58
2021/11/16 02:04:58;;;;;;;;;11.50;10.50;;;;;8.71;86.87;102040.31;5060478;28;45315;-58
2021/11/16 02:07:24;;;;;;;;;15.00;12.00;;;;;8.71;86.43;102034.28;5060598;28;45314;-58
2021/11/16 02:09:49;;;;;;;;;16.00;12.00;;;;;8.71;86.45;102034.28;5060361;28;45308;-58
2021/11/16 02:12:15;;;;;;;;;11.50;11.25;;;;;8.71;85.93;102032.56;5060413;28;46296;-58
2021/11/16 02:14:40;;;;;;;;;12.50;8.75;;;;;8.72;85.92;102030.81;5060181;28;45358;-57
2021/11/16 02:17:06;;;;;;;;;18.75;16.50;;;;;8.72;86.45;102033.41;5060429;28;45336;-58
2021/11/16 02:19:31;;;;;;;;;18.75;13.00;;;;;8.73;85.52;102035.16;5046627;28;45271;-58
2021/11/16 02:21:57;;;;;;;;;19.75;12.00;;;;;8.74;85.82;102023.91;5060114;28;46813;-58
2021/11/16 02:24:23;;;;;;;;;22.00;12.50;;;;;8.75;85.99;102026.50;5049222;28;45240;-58
2021/11/16 02:26:49;;;;;;;;;18.75;14.50;;;;;8.75;85.84;102023.06;5060597;28;45271;-57
2021/11/16 02:29:16;;;;;;;;;18.00;10.75;;;;;8.75;86.18;102021.31;5058711;28;46063;-58
2021/11/16 02:31:44;;;;;;;;;22.50;14.50;;;;;8.76;86.09;102024.78;5059848;28;46220;-57
2021/11/16 02:34:10;;;;;;;;;22.00;14.75;;;;;8.75;86.23;102025.63;5058653;28;45852;-57
2021/11/16 02:36:35;;;;;;;;;18.25;15.50;;;;;8.73;86.19;102025.63;5060209;28;45517;-57
2021/11/16 02:39:03;;;;;;;;;22.50;14.50;;;;;8.72;86.05;102030.81;5059943;28;45256;-57
2021/11/16 02:41:34;;;;;;;;;16.50;12.75;;;;;8.70;85.88;102025.66;5059968;28;45241;-58
2021/11/16 02:44:01;;;;;;;;;18.50;12.50;;;;;8.71;86.22;102026.50;5059407;28;45319;-58
2021/11/16 02:46:28;;;;;;;;;14.50;13.00;;;;;8.72;85.92;102026.50;5059478;28;45265;-58
2021/11/16 02:48:53;;;;;;;;;21.75;14.50;;;;;8.68;85.77;102022.19;5059629;28;45173;-58
2021/11/16 02:51:19;;;;;;;;;22.00;16.75;;;;;8.69;85.54;102023.91;5059809;28;45888;-58
2021/11/16 02:53:44;;;;;;;;;22.50;13.75;;;;;8.70;86.04;102015.28;5053125;28;45409;-58
2021/11/16 02:56:10;;;;;;;;;21.75;15.25;;;;;8.74;85.62;102016.13;5060130;28;45181;-58
2021/11/16 02:58:36;;;;;;;;;16.50;14.00;;;;;8.75;85.74;102025.63;5059705;28;45374;-57
2021/11/16 03:01:07;;;;;;;;;20.50;13.50;;;;;8.72;85.64;102008.38;5059641;28;46017;-57
2021/11/16 03:03:37;;;;;;;;;14.75;12.50;;;;;8.79;85.87;102006.63;5059076;28;45275;-57
2021/11/16 03:06:02;;;;;;;;;19.25;13.00;;;;;8.82;85.54;102006.66;5055094;28;45363;-57
2021/11/16 03:08:29;;;;;;;;;15.25;13.75;;;;;8.83;84.93;102003.19;5056997;28;45481;-58
2021/11/16 03:10:58;;;;;;;;;19.00;14.00;;;;;8.85;84.31;102019.63;5060894;28;45275;-57
2021/11/16 03:13:26;;;;;;;;;22.50;14.50;;;;;8.81;85.25;102000.59;5063055;28;45854;-58
2021/11/16 03:15:52;;;;;;;;;19.25;11.75;;;;;8.82;85.29;102002.34;5063420;28;45274;-58
2021/11/16 03:18:18;;;;;;;;;18.25;11.50;;;;;8.82;84.96;102014.44;5062143;28;45441;-58
2021/11/16 03:20:44;;;;;;;;;20.00;14.75;;;;;8.79;85.50;102009.22;5063174;28;45395;-58
2021/11/16 03:25:40;;;;;;;;;21.25;14.50;;;;;8.70;85.62;102014.41;5055190;28;45308;-58
2021/11/16 03:28:09;;;;;;;;;23.00;15.00;;;;;8.70;86.26;102007.50;5062934;28;45237;-58
2021/11/16 03:30:35;;;;;;;;;23.50;14.50;;;;;8.73;86.12;102011.81;5062791;28;46146;-58
2021/11/16 03:33:01;;;;;;;;;20.25;19.50;;;;;8.73;85.88;102011.81;5062796;28;45492;-58
2021/11/16 03:35:28;;;;;;;;;22.25;16.00;;;;;8.70;86.16;102009.22;5062854;28;45401;-58
2021/11/16 03:37:58;;;;;;;;;20.50;16.25;;;;;8.69;86.35;102004.91;5062351;28;45279;-58
2021/11/16 03:40:25;;;;;;;;;22.50;16.50;;;;;8.71;86.18;102006.63;5062683;28;46316;-57
2021/11/16 03:42:51;;;;;;;;;28.75;19.00;;;;;8.68;85.79;102010.97;5063205;28;45745;-57
2021/11/16 03:45:21;;;;;;;;;21.75;18.50;;;;;8.66;86.22;102023.06;5062104;28;45284;-58
2021/11/16 03:47:47;;;;;;;;;25.25;18.00;;;;;8.59;86.50;102014.38;5062020;28;45240;-57
2021/11/16 03:50:16;;;;;;;;;34.75;18.00;;;;;8.59;86.67;102016.97;5062611;28;45619;-59
2021/11/16 03:52:43;;;;;;;;;23.75;15.75;;;;;8.59;87.08;102019.56;5060701;28;45386;-58
2021/11/16 03:55:12;;;;;;;;;25.00;21.00;;;;;8.57;86.75;102018.72;5056942;28;45331;-58
2021/11/16 03:57:38;;;;;;;;;17.25;17.25;;;;;8.53;86.98;102019.56;5062626;28;45489;-59
2021/11/16 04:00:06;;;;;;;;;22.00;18.50;;;;;8.51;87.16;102019.56;5061975;28;45539;-58
2021/11/16 04:02:31;;;;;;;;;22.50;16.75;;;;;8.49;87.46;102015.25;5062295;28;45853;-58
2021/11/16 04:04:57;;;;;;;;;29.50;19.25;;;;;8.52;87.40;102021.31;5062401;28;45276;-58
2021/11/16 04:07:22;;;;;;;;;22.50;15.50;;;;;8.49;87.47;102012.66;5062480;28;45485;-58
2021/11/16 04:09:48;;;;;;;;;24.00;17.25;;;;;8.50;87.64;102014.41;5062295;28;45242;-58
2021/11/16 04:12:13;;;;;;;;;30.50;21.75;;;;;8.51;87.87;102022.16;5062409;28;45197;-58
2021/11/16 04:14:39;;;;;;;;;22.00;17.25;;;;;8.47;87.30;102022.16;5062267;28;45239;-58
2021/11/16 04:17:05;;;;;;;;;23.50;20.00;;;;;8.46;87.82;102020.44;5062095;28;45170;-58
2021/11/16 04:19:30;;;;;;;;;31.75;16.75;;;;;8.44;87.63;102019.56;5048649;28;45825;-58
2021/11/16 04:21:57;;;;;;;;;25.75;17.00;;;;;8.40;87.32;102013.50;5061374;28;45216;-58
2021/11/16 04:24:22;;;;;;;;;24.00;18.50;;;;;8.39;87.90;102013.50;5051290;28;45220;-57
2021/11/16 04:26:47;;;;;;;;;23.25;17.25;;;;;8.34;87.84;102012.63;5062173;28;45355;-57
2021/11/16 04:29:13;;;;;;;;;25.25;17.50;;;;;8.34;87.99;102017.81;5061893;28;45274;-57
2021/11/16 04:31:39;;;;;;;;;21.50;18.00;;;;;8.35;87.82;102016.94;5061686;28;45279;-58
2021/11/16 04:34:06;;;;;;;;;26.75;19.25;;;;;8.35;87.60;102007.44;5062088;28;45323;-58
2021/11/16 04:36:33;;;;;;;;;21.00;16.75;;;;;8.33;87.90;102006.56;5061173;28;45966;-59
2021/11/16 04:38:59;;;;;;;;;24.75;17.25;;;;;8.39;88.11;102013.50;5059237;28;45463;-60
2021/11/16 04:41:24;;;;;;;;;25.25;17.00;;;;;8.39;87.81;102009.19;5059918;28;45423;-57
2021/11/16 04:43:50;;;;;;;;;26.00;16.75;;;;;8.42;87.97;102006.63;5061091;28;45462;-57
2021/11/16 04:46:19;;;;;;;;;26.75;20.25;;;;;8.44;88.02;102006.63;5059969;28;45457;-57
2021/11/16 05:04:26;;;;;;;;;20.75;17.25;;;;;8.57;87.86;102021.31;5059430;28;45618;-57
2021/11/16 05:06:53;;;;;;;;;29.00;19.25;;;;;8.58;87.65;102019.56;5058726;28;45571;-58
2021/11/16 05:09:19;;;;;;;;;23.75;18.50;;;;;8.60;87.74;102017.84;5060584;28;47177;-57
2021/11/16 05:11:44;;;;;;;;;27.50;24.50;;;;;8.60;88.17;102012.66;5061174;28;45251;-57
2021/11/16 05:14:10;;;;;;;;;26.00;20.00;;;;;8.61;87.88;102019.56;5061556;28;45195;-58
2021/11/16 05:16:35;;;;;;;;;35.25;20.75;;;;;8.63;87.98;102013.56;5060758;28;45280;-58
2021/11/16 05:19:00;;;;;;;;;25.50;18.75;;;;;8.63;87.49;102008.38;5060643;28;46106;-58
2021/11/16 05:21:26;;;;;;;;;43.50;22.00;;;;;8.64;87.54;102020.47;5060991;28;45151;-58
2021/11/16 05:23:54;;;;;;;;;31.50;21.00;;;;;8.64;87.71;102015.28;5052279;28;45547;-57
2021/11/16 05:26:21;;;;;;;;;25.00;16.25;;;;;8.69;87.97;102018.72;5057982;28;45506;-58
2021/11/16 05:28:47;;;;;;;;;23.25;19.25;;;;;8.70;87.45;102020.47;5060962;28;45289;-57
2021/11/16 05:31:14;;;;;;;;;23.25;19.50;;;;;8.68;87.35;102022.19;5060721;28;45450;-57
2021/11/16 05:33:40;;;;;;;;;28.50;20.25;;;;;8.66;87.53;102012.69;5059228;28;45311;-57
2021/11/16 05:36:05;;;;;;;;;26.75;19.75;;;;;8.70;86.95;102029.97;5059909;28;45506;-58
2021/11/16 05:38:33;;;;;;;;;21.00;17.00;;;;;8.70;86.88;102030.81;5049373;28;45921;-57
2021/11/16 05:41:00;;;;;;;;;22.00;19.00;;;;;8.72;87.44;102025.63;5058621;28;45460;-58
2021/11/16 05:43:26;;;;;;;;;25.00;19.50;;;;;8.73;86.94;102027.38;5061824;28;45546;-57
2021/11/16 05:45:52;;;;;;;;;31.00;22.00;;;;;8.72;87.00;102023.06;5058897;28;45451;-58
2021/11/16 05:48:18;;;;;;;;;25.00;18.00;;;;;8.68;87.05;102029.97;5060167;28;46283;-57
2021/11/16 05:50:43;;;;;;;;;26.75;16.75;;;;;8.64;87.64;102025.66;5060346;28;45232;-57
2021/11/16 05:53:10;;;;;;;;;20.50;20.50;;;;;8.64;87.81;102030.81;5056277;28;45145;-57
2021/11/16 05:55:36;;;;;;;;;21.50;18.50;;;;;8.61;87.73;102035.13;5058600;28;45307;-57
2021/11/16 05:58:02;;;;;;;;;26.00;20.25;;;;;8.60;88.00;102028.22;5060137;28;45271;-57
2021/11/16 06:00:28;;;;;;;;;37.75;24.75;;;;;8.56;87.61;102035.13;5059816;28;45340;-57
2021/11/16 06:02:54;;;;;;;;;35.75;19.50;;;;;8.51;88.09;102026.47;5060123;28;45291;-57
2021/11/16 06:05:20;;;;;;;;;28.50;20.75;;;;;8.52;88.61;102029.06;5060027;28;45330;-57
2021/11/16 06:07:46;;;;;;;;;26.75;17.50;;;;;8.57;88.84;102030.81;5060011;28;46180;-57
2021/11/16 06:10:12;;;;;;;;;29.00;21.50;;;;;8.58;88.96;102035.13;5060003;28;45330;-58
2021/11/16 06:12:37;;;;;;;;;23.50;14.50;;;;;8.58;88.73;102030.81;5060500;28;45272;-60
2021/11/16 06:15:05;;;;;;;;;32.25;19.75;;;;;8.55;88.73;102035.97;5059755;28;45204;-59
2021/11/16 06:17:30;;;;;;;;;18.75;17.25;;;;;8.53;88.82;102035.97;5059811;28;46578;-59
2021/11/16 06:19:58;;;;;;;;;29.25;17.75;;;;;8.53;88.44;102033.38;5046123;28;45254;-59
2021/11/16 06:22:23;;;;;;;;;25.00;17.50;;;;;8.51;88.63;102032.53;5060020;28;45313;-59
2021/11/16 06:24:49;;;;;;;;;29.00;21.00;;;;;8.52;89.19;102035.97;5048970;28;45249;-59
2021/11/16 06:27:14;;;;;;;;;36.00;21.00;;;;;8.52;88.81;102036.84;5059888;28;45841;-58
2021/11/16 06:29:40;;;;;;;;;24.25;18.25;;;;;8.48;89.19;102039.44;5059436;28;45374;-58
2021/11/16 06:32:07;;;;;;;;;29.00;19.50;;;;;8.47;89.51;102045.47;5059776;28;45500;-57
2021/11/16 06:34:32;;;;;;;;;33.75;23.75;;;;;8.46;89.45;102042.03;5059027;28;45343;-58
2021/11/16 06:36:58;;;;;;;;;28.75;21.25;;;;;8.47;89.38;102043.75;5059285;28;45284;-58
2021/11/16 06:39:23;;;;;;;;;22.25;19.50;;;;;8.45;89.37;102040.31;5059719;28;45226;-59
2021/11/16 06:41:50;;;;;;;;;23.00;9.75;;;;;8.43;89.79;102047.22;5058698;28;45350;-58
2021/11/16 06:44:18;;;;;;;;;37.00;22.75;;;;;8.42;89.92;102048.06;5052291;28;45493;-57
2021/11/16 06:46:44;;;;;;;;;26.00;22.00;;;;;8.41;89.81;102051.53;5052961;28;45448;-57
2021/11/16 06:49:10;;;;;;;;;27.25;19.25;;;;;8.37;90.15;102047.16;5059187;28;45308;-57
2021/11/16 06:51:38;;;;;;;;;32.50;20.75;;;;;8.28;90.28;102041.09;5059585;28;45461;-58
2021/11/16 06:54:13;;;;;;;;;28.00;20.25;;;;;8.29;90.38;102045.41;5053009;28;45458;-58
2021/11/16 06:56:41;;;;;;;;;27.00;24.00;;;;;8.35;90.63;102045.44;5059298;28;46195;-60
2021/11/16 06:59:07;;;;;;;;;33.50;25.00;;;;;8.31;90.35;102049.72;5059633;28;45255;-59
2021/11/16 07:01:36;;;;;;;;;25.75;20.25;;;;;8.28;90.62;102047.13;5058748;28;45347;-75
2021/11/16 07:04:08;;;;;;;;;39.25;23.50;;;;;8.35;90.70;102042.84;5059346;28;45297;-59
2021/11/16 07:06:35;;;;;;;;;29.25;21.25;;;;;8.36;90.65;102047.16;5058925;28;46251;-62
2021/11/16 07:09:01;;;;;;;;;27.50;18.75;;;;;8.38;90.58;102048.03;5054770;28;45413;-57
2021/11/16 07:11:27;;;;;;;;;22.75;20.25;;;;;8.36;90.41;102050.63;5055382;28;45252;-56
2021/11/16 07:13:59;;;;;;;;;24.25;23.50;;;;;8.37;90.21;102057.53;5057792;28;45564;-57
2021/11/16 07:16:33;;;;;;;;;23.75;20.25;;;;;8.37;90.45;102049.75;5058696;28;46069;-57
2021/11/16 07:19:01;;;;;;;;;26.50;22.00;;;;;8.39;90.12;102060.97;5046799;28;45351;-56
2021/11/16 07:21:28;;;;;;;;;22.25;17.00;;;;;8.41;89.76;102063.56;5057430;28;45343;-57
2021/11/16 07:24:09;;;;;;;;;31.75;19.25;;;;;8.40;89.96;102056.66;5049369;28;45485;-59
2021/11/16 07:26:39;;;;;;;;;28.25;19.50;;;;;8.42;89.84;102054.97;5046033;28;47179;-58
2021/11/16 07:29:07;;;;;;;;;28.00;21.00;;;;;8.45;89.71;102049.78;5058832;28;45244;-60
2021/11/16 07:31:36;;;;;;;;;26.25;20.00;;;;;8.45;89.50;102047.22;5058918;28;45370;-58
2021/11/16 07:34:16;;;;;;;;;23.75;19.00;;;;;8.49;89.56;102056.72;5058615;28;45579;-58
2021/11/16 07:36:53;;;;;;;;;24.25;20.00;;;;;8.50;89.35;102061.03;5058357;28;47143;-58
2021/11/16 07:39:18;;;;;;;;;21.75;20.00;;;;;8.47;89.75;102048.06;5058136;28;45907;-58
2021/11/16 07:41:44;;;;;;;;;34.50;21.75;;;;;8.47;88.77;102043.75;5058750;28;45481;-58
2021/11/16 07:44:11;;;;;;;;;27.75;21.75;;;;;8.51;89.45;102048.06;5057897;28;45485;-58
2021/11/16 07:46:38;;;;;;;;;24.75;15.50;;;;;8.57;89.40;102042.03;5057697;28;46236;-58
2021/11/16 07:49:04;;;;;;;;;28.00;17.50;;;;;8.62;88.61;102044.66;5058234;28;45792;-58
2021/11/16 07:51:29;;;;;;;;;21.75;19.00;;;;;8.65;88.57;102042.06;5058346;28;45258;-58
2021/11/16 07:53:56;;;;;;;;;32.75;23.25;;;;;8.72;88.61;102036.88;5051855;28;45413;-58
2021/11/16 07:56:24;;;;;;;;;24.75;20.00;;;;;8.78;88.18;102042.06;5058663;28;45329;-58
2021/11/16 07:58:56;;;;;;;;;31.50;22.75;;;;;8.83;88.10;102040.34;5061619;28;45367;-58
2021/11/16 08:01:47;;;;;;;;;30.00;21.25;;;;;8.87;86.87;102049.00;5062018;28;45229;-59
2021/11/16 08:04:21;;;;;;;;;24.75;19.75;;;;;8.89;86.15;102049.00;5060694;28;45843;-59
2021/11/16 08:12:08;;;;;;;;;27.75;21.50;;;;;8.91;86.74;102057.63;5062271;27;45497;-59
2021/11/16 08:14:35;;;;;;;;;17.50;15.75;;;;;8.90;86.30;102069.72;5061553;28;45441;-59
2021/11/16 08:17:04;;;;;;;;;32.00;24.75;;;;;8.92;86.35;102061.94;5061532;28;45367;-58
2021/11/16 08:19:33;;;;;;;;;36.25;21.00;;;;;8.94;86.00;102063.66;5060718;28;45999;-58
2021/11/16 08:22:02;;;;;;;;;25.00;21.00;;;;;8.92;84.81;102057.63;5057187;28;45566;-58
2021/11/16 08:24:31;;;;;;;;;20.75;16.25;;;;;8.91;84.97;102045.53;5055961;28;46032;-58
2021/11/16 08:26:59;;;;;;;;;27.00;20.50;;;;;8.94;85.10;102048.13;5061925;28;46219;-58
2021/11/16 08:29:37;;;;;;;;;24.00;23.00;;;;;8.99;84.27;102053.28;5061328;28;45250;-60
2021/11/16 08:32:14;;;;;;;;;30.50;21.25;;;;;9.02;83.90;102051.59;5061357;28;45224;-58
2021/11/16 08:34:44;;;;;;;;;23.50;17.75;;;;;9.02;84.18;102045.53;5061005;28;45323;-58
2021/11/16 08:37:13;;;;;;;;;31.00;22.75;;;;;9.05;84.06;102042.94;5060097;28;46192;-58
2021/11/16 08:39:44;;;;;;;;;30.50;21.25;;;;;9.09;84.62;102034.28;5061306;28;45485;-58
2021/11/16 08:42:21;;;;;;;;;25.50;20.25;;;;;9.17;84.26;102031.69;5062244;28;45267;-58
2021/11/16 08:45:00;;;;;;;;;30.50;22.50;;;;;9.26;84.27;102031.69;5060354;28;45422;-58
2021/11/16 08:47:28;;;;;;;;;25.25;22.50;;;;;9.29;83.24;102032.53;5060215;28;47020;-58
2021/11/16 08:49:54;;;;;;;;;27.25;19.75;;;;;9.29;82.84;102032.53;5061565;28;45189;-58
2021/11/16 08:52:20;;;;;;;;;28.50;18.25;;;;;9.30;80.39;102031.66;5060303;28;45646;-57
2021/11/16 08:55:20;;;;;;;;;22.50;17.50;;;;;9.27;81.52;102036.88;5052900;28;46010;-58
2021/11/16 08:57:49;;;;;;;;;32.50;22.75;;;;;9.25;82.17;102035.16;5059756;28;47185;-57
2021/11/16 09:00:22;;;;;;;;;25.75;22.25;;;;;9.28;82.34;102027.34;5060840;28;45310;-58
2021/11/16 09:02:48;;;;;;;;;32.50;23.25;;;;;9.36;82.58;102033.38;5061452;28;45407;-58
2021/11/16 09:05:16;;;;;;;;;36.00;24.00;;;;;9.40;82.35;102032.50;5059520;28;45520;-58
2021/11/16 09:07:54;;;;;;;;;32.50;24.50;;;;;9.35;82.38;102034.25;5061086;28;46212;-59
2021/11/16 09:10:20;;;;;;;;;32.75;22.25;;;;;9.37;82.62;102029.91;5060716;28;45322;-59
2021/11/16 09:12:52;;;;;;;;;32.25;23.00;;;;;9.38;82.84;102027.31;5061495;28;45578;-60
2021/11/16 09:15:37;;;;;;;;;28.50;21.00;;;;;9.42;81.56;102023.88;5047030;28;45454;-60
2021/11/16 09:18:15;;;;;;;;;24.75;22.00;;;;;9.39;81.73;102025.59;5059036;28;46820;-58
2021/11/16 09:20:43;;;;;;;;;30.25;25.25;;;;;9.37;81.92;102015.22;5061207;28;45913;-58
2021/11/16 09:23:20;;;;;;;;;25.25;21.00;;;;;9.44;82.27;102005.72;5057989;28;45233;-59
2021/11/16 09:25:49;;;;;;;;;26.00;22.75;;;;;9.51;82.31;102014.34;5054473;28;45227;-58
2021/11/16 09:28:38;;;;;;;;;25.25;20.50;;;;;9.54;81.41;102016.91;5061140;28;45527;-58
2021/11/16 09:31:21;;;;;;;;;24.00;22.75;;;;;9.57;82.19;102012.56;5060836;28;45759;-59
2021/11/16 09:33:47;;;;;;;;;30.25;23.50;;;;;9.62;81.37;102010.84;5061036;28;45311;-58
2021/11/16 09:36:50;;;;;;;;;31.00;22.25;;;;;9.65;81.19;102008.25;5059756;28;45444;-58
2021/11/16 09:39:20;;;;;;;;;24.25;18.00;;;;;9.75;81.53;101996.06;4998273;28;47078;-58
2021/11/16 09:41:53;;;;;;;;;32.50;22.50;;;;;9.74;81.01;101990.03;5046307;28;45829;-58
2021/11/16 09:44:42;;;;;;;;;33.25;23.25;;;;;9.82;81.28;101995.22;5059280;28;45236;-58
2021/11/16 09:47:09;;;;;;;;;23.50;22.75;;;;;9.86;80.02;101999.50;5059715;28;45346;-58
2021/11/16 09:49:56;;;;;;;;;25.50;16.75;;;;;9.91;79.85;102010.72;5060786;28;46154;-58
2021/11/16 09:52:28;;;;;;;;;26.25;19.75;;;;;9.96;80.16;102008.97;5059772;28;45249;-58
2021/11/16 09:55:07;;;;;;;;;26.50;22.00;;;;;9.96;78.90;102008.09;5053837;28;45375;-58
2021/11/16 09:57:34;;;;;;;;;26.75;17.75;;;;;9.98;79.19;102008.97;5060141;28;45350;-58
2021/11/16 10:00:11;;;;;;;;;25.75;21.75;;;;;10.02;79.41;102005.50;5060029;28;45493;-58
2021/11/16 10:02:41;;;;;;;;;18.75;14.00;;;;;10.04;79.48;102002.03;5060269;28;45250;-58
2021/11/16 10:05:21;;;;;;;;;20.00;16.25;;;;;10.05;78.76;102001.16;5060141;28;45452;-57
2021/11/16 10:07:52;;;;;;;;;20.00;16.00;;;;;10.02;79.02;102008.97;5060183;28;45445;-58
2021/11/16 10:10:20;;;;;;;;;27.25;18.00;;;;;10.06;79.54;102018.47;5059982;28;45390;-57
2021/11/16 10:12:52;;;;;;;;;27.25;18.00;;;;;10.01;79.00;102015.03;5060427;28;45881;-57
2021/11/16 10:15:20;;;;;;;;;33.50;22.75;;;;;10.01;78.92;102009.84;5059774;28;45340;-56
2021/11/16 10:17:48;;;;;;;;;24.75;20.25;;;;;9.92;78.41;102009.84;5056733;28;45870;-57
2021/11/16 10:20:16;;;;;;;;;22.75;17.75;;;;;9.91;78.67;102009.88;5045262;28;46262;-57
2021/11/16 10:22:45;;;;;;;;;32.25;20.00;;;;;9.90;78.62;102005.53;5059141;28;45367;-58
2021/11/16 10:25:20;;;;;;;;;25.75;19.50;;;;;9.95;79.22;102004.66;5048510;28;45295;-58
2021/11/16 10:27:48;;;;;;;;;28.00;19.00;;;;;9.94;78.43;102002.91;5059124;28;45535;-58
2021/11/16 10:30:19;;;;;;;;;24.75;19.50;;;;;9.94;79.11;102004.66;5059502;28;45380;-57
2021/11/16 10:33:07;;;;;;;;;26.25;20.50;;;;;9.94;79.24;102005.50;5059194;28;45458;-58
2021/11/16 10:35:33;;;;;;;;;23.50;18.50;;;;;9.95;79.20;101999.44;5058886;28;45474;-58
2021/11/16 10:37:59;;;;;;;;;27.75;19.00;;;;;9.96;79.08;102005.50;5059713;28;45277;-61
2021/11/16 10:40:27;;;;;;;;;20.25;18.25;;;;;9.98;78.48;102008.97;5057479;28;45473;-59
2021/11/16 10:42:56;;;;;;;;;24.25;19.00;;;;;9.92;78.90;102020.25;5059640;28;45264;-56
2021/11/16 10:45:25;;;;;;;;;26.75;18.00;;;;;9.90;78.94;101997.75;5058035;28;45645;-56
2021/11/16 10:47:51;;;;;;;;;19.75;14.50;;;;;9.95;78.96;102004.66;5045802;28;45292;-57
2021/11/16 10:50:21;;;;;;;;;26.00;16.00;;;;;9.92;78.64;102015.06;5059007;28;46033;-58
2021/11/16 10:53:01;;;;;;;;;27.75;21.25;;;;;9.96;79.10;102006.38;5058130;28;45776;-57
2021/11/16 10:55:57;;;;;;;;;26.50;22.25;;;;;9.98;78.95;102009.81;5035582;28;45727;-58
2021/11/16 10:58:26;;;;;;;;;23.75;16.75;;;;;10.00;78.25;102005.47;5041627;28;45960;-57
2021/11/16 11:00:59;;;;;;;;;25.00;16.00;;;;;10.01;78.27;102003.75;5038546;28;45271;-57
2021/11/16 11:03:36;;;;;;;;;19.25;14.25;;;;;10.09;78.80;102006.31;5038496;28;45272;-69
2021/11/16 11:06:05;;;;;;;;;25.00;18.50;;;;;10.11;78.71;102000.25;5038978;28;45390;-57
2021/11/16 11:09:02;;;;;;;;;20.25;13.25;;;;;10.12;77.66;101995.91;5038013;28;45301;-67
2021/11/16 11:11:32;;;;;;;;;18.50;14.00;;;;;10.10;78.29;101993.31;5039024;28;45519;-58
2021/11/16 11:14:12;;;;;;;;;24.25;19.50;;;;;10.14;77.76;101994.16;5038058;28;45391;-64
2021/11/16 11:16:49;;;;;;;;;14.25;9.50;;;;;10.13;74.78;101985.50;5038127;28;45316;-57
2021/11/16 11:19:21;;;;;;;;;16.25;12.00;;;;;10.12;76.77;101981.19;5037787;28;45420;-57
2021/11/16 11:21:56;;;;;;;;;16.00;8.50;;;;;10.16;76.58;101982.03;5038411;28;46398;-57
2021/11/16 11:24:28;;;;;;;;;18.25;15.50;;;;;10.24;76.43;101981.16;5026637;28;45457;-57
2021/11/16 11:27:00;;;;;;;;;21.25;13.50;;;;;10.35;76.90;101979.34;5038769;28;45355;-57
2021/11/16 11:32:12;;;;;;;;;14.25;12.25;;;;;10.44;76.70;101972.38;5039365;28;46020;-59
2021/11/16 11:34:39;;;;;;;;;20.00;15.00;;;;;10.43;76.96;101966.31;5036948;28;45577;-59
2021/11/16 11:37:16;;;;;;;;;22.75;15.50;;;;;10.46;76.11;101965.41;5039532;28;45458;-59
2021/11/16 11:39:42;;;;;;;;;19.75;17.25;;;;;10.48;76.58;101959.34;5041573;28;45423;-61
2021/11/16 11:42:12;;;;;;;;;19.25;14.50;;;;;10.53;75.72;101951.50;5041319;28;45392;-61
2021/11/16 11:44:41;;;;;;;;;8.75;4.00;;;;;10.49;75.84;101953.25;5040836;28;45536;-61
2021/11/16 11:47:07;;;;;;;;;19.50;13.00;;;;;10.41;75.73;101947.28;5040041;28;45250;-60
2021/11/16 11:49:33;;;;;;;;;15.25;10.75;;;;;10.41;75.98;101949.88;5041909;28;45386;-61